createdAt,value
2022-10-07T00:01:03.558Z,15.97
2022-10-07T00:03:33.019Z,12.20
2022-10-07T00:06:02.519Z,11.97
2022-10-07T00:08:30.881Z,13.77
2022-10-07T00:10:58.998Z,12.97
2022-10-07T00:13:27.083Z,12.47
2022-10-07T00:15:54.858Z,13.97
2022-10-07T00:18:22.689Z,12.40
2022-10-07T00:20:51.848Z,15.40
2022-10-07T00:23:19.678Z,12.73
2022-10-07T00:25:47.474Z,13.37
2022-10-07T00:28:15.306Z,18.60
2022-10-07T00:30:44.133Z,15.47
2022-10-07T00:33:11.955Z,11.87
2022-10-07T00:35:39.797Z,13.47
2022-10-07T00:38:09.017Z,17.20
2022-10-07T00:40:36.815Z,13.03
2022-10-07T00:43:20.221Z,13.57
2022-10-07T00:45:48.300Z,12.03
2022-10-07T00:48:19.779Z,15.30
2022-10-07T00:50:51.938Z,10.30
2022-10-07T00:53:22.275Z,11.60
2022-10-07T00:55:50.235Z,14.97
2022-10-07T00:58:19.324Z,10.90
2022-10-07T01:00:48.204Z,12.20
2022-10-07T01:03:16.153Z,13.23
2022-10-07T01:05:44.012Z,11.80
2022-10-07T01:08:12.244Z,16.60
2022-10-07T01:10:51.661Z,12.47
2022-10-07T01:13:32.056Z,12.33
2022-10-07T01:16:08.829Z,14.13
2022-10-07T01:18:45.741Z,10.50
2022-10-07T01:21:22.731Z,13.30
2022-10-07T01:24:15.948Z,16.77
2022-10-07T01:27:01.074Z,11.00
2022-10-07T01:29:36.235Z,13.13
2022-10-07T01:32:09.934Z,12.27
2022-10-07T01:34:40.501Z,18.50
2022-10-07T01:37:15.035Z,16.07
2022-10-07T01:39:48.117Z,18.23
2022-10-07T01:42:20.663Z,18.13
2022-10-07T01:44:58.371Z,12.70
2022-10-07T01:47:26.768Z,14.37
2022-10-07T01:49:54.617Z,17.13
2022-10-07T01:52:42.338Z,15.70
2022-10-07T01:55:47.354Z,15.17
2022-10-07T01:58:36.622Z,13.27
2022-10-07T02:01:15.166Z,17.63
2022-10-07T02:04:01.355Z,14.20
2022-10-07T02:06:39.316Z,13.70
2022-10-07T02:09:14.532Z,14.03
2022-10-07T02:11:47.399Z,10.50
2022-10-07T02:14:20.936Z,12.20
2022-10-07T02:16:52.583Z,11.10
2022-10-07T02:19:32.499Z,11.70
2022-10-07T02:22:02.700Z,10.50
2022-10-07T02:24:35.487Z,11.47
2022-10-07T02:27:11.254Z,11.63
2022-10-07T02:29:44.306Z,12.80
2022-10-07T02:32:16.225Z,12.20
2022-10-07T02:34:46.088Z,15.10
2022-10-07T02:37:19.116Z,10.27
2022-10-07T02:39:48.573Z,10.63
2022-10-07T02:42:24.107Z,13.00
2022-10-07T02:44:56.831Z,11.27
2022-10-07T02:47:31.869Z,10.67
2022-10-07T02:50:05.275Z,13.47
2022-10-07T02:52:35.336Z,12.10
2022-10-07T02:55:07.602Z,10.60
2022-10-07T02:57:39.343Z,13.87
2022-10-07T03:00:11.467Z,10.97
2022-10-07T03:02:54.007Z,12.10
2022-10-07T03:05:26.314Z,10.70
2022-10-07T03:08:00.654Z,14.17
2022-10-07T03:10:28.908Z,13.17
2022-10-07T03:12:57.831Z,12.13
2022-10-07T03:15:27.463Z,11.07
2022-10-07T03:17:56.223Z,12.83
2022-10-07T03:20:24.660Z,14.83
2022-10-07T03:22:52.543Z,10.93
2022-10-07T03:25:20.601Z,23.73
2022-10-07T03:27:48.959Z,15.43
2022-10-07T03:30:20.162Z,13.13
2022-10-07T03:32:55.016Z,12.53
2022-10-07T03:35:23.909Z,13.63
2022-10-07T03:37:51.970Z,13.80
2022-10-07T03:40:20.377Z,19.23
2022-10-07T03:42:49.991Z,16.17
2022-10-07T03:45:20.779Z,15.07
2022-10-07T03:47:48.622Z,16.57
2022-10-07T03:50:18.232Z,18.03
2022-10-07T03:52:46.145Z,14.57
2022-10-07T03:55:14.092Z,14.77
2022-10-07T03:57:58.443Z,17.57
2022-10-07T04:00:28.363Z,17.53
2022-10-07T04:02:58.174Z,14.50
2022-10-07T04:05:28.464Z,12.53
2022-10-07T04:07:56.683Z,12.27
2022-10-07T04:10:24.720Z,12.80
2022-10-07T04:12:53.160Z,13.43
2022-10-07T04:15:22.184Z,16.97
2022-10-07T04:17:50.298Z,12.33
2022-10-07T04:20:20.147Z,10.87
2022-10-07T04:22:49.354Z,14.80
2022-10-07T04:25:35.796Z,15.67
2022-10-07T04:28:16.890Z,13.30
2022-10-07T04:30:51.060Z,11.40
2022-10-07T04:33:22.321Z,12.20
2022-10-07T04:35:51.553Z,16.70
2022-10-07T04:38:25.234Z,23.57
2022-10-07T04:40:55.605Z,13.30
2022-10-07T04:43:24.375Z,10.53
2022-10-07T04:46:02.864Z,14.13
2022-10-07T04:48:31.545Z,15.87
2022-10-07T04:51:03.289Z,10.37
2022-10-07T04:53:32.648Z,14.13
2022-10-07T04:56:01.437Z,9.40
2022-10-07T04:58:31.447Z,11.00
2022-10-07T05:01:01.946Z,12.83
2022-10-07T05:03:30.876Z,10.87
2022-10-07T05:06:05.757Z,12.83
2022-10-07T05:08:36.888Z,12.57
2022-10-07T05:11:06.428Z,10.80
2022-10-07T05:13:42.945Z,11.60
2022-10-07T05:16:12.071Z,9.03
2022-10-07T05:18:40.982Z,8.90
2022-10-07T05:21:12.422Z,11.93
2022-10-07T05:23:46.006Z,10.93
2022-10-07T05:26:18.279Z,11.10
2022-10-07T05:28:51.319Z,11.00
2022-10-07T05:31:26.262Z,11.43
2022-10-07T05:33:57.536Z,9.00
2022-10-07T05:36:27.176Z,8.70
2022-10-07T05:38:59.457Z,8.57
2022-10-07T05:41:44.957Z,10.73
2022-10-07T05:44:13.771Z,10.97
2022-10-07T05:46:42.197Z,10.57
2022-10-07T05:49:10.392Z,14.23
2022-10-07T05:51:38.269Z,11.73
2022-10-07T05:54:08.622Z,12.03
2022-10-07T05:56:40.791Z,8.87
2022-10-07T05:59:10.377Z,9.77
2022-10-07T06:01:40.472Z,10.80
2022-10-07T06:04:13.744Z,15.77
2022-10-07T06:06:45.065Z,11.57
2022-10-07T06:09:33.483Z,8.90
2022-10-07T06:12:23.328Z,9.73
2022-10-07T06:14:53.355Z,11.40
2022-10-07T06:17:21.397Z,10.90
2022-10-07T06:19:51.818Z,8.57
2022-10-07T06:22:21.821Z,9.10
2022-10-07T06:24:52.027Z,10.73
2022-10-07T06:27:20.284Z,31.07
2022-10-07T06:29:48.226Z,25.20
2022-10-07T06:32:16.039Z,25.20
2022-10-07T06:34:45.322Z,18.30
2022-10-07T06:37:14.267Z,10.13
2022-10-07T06:39:42.692Z,8.63
2022-10-07T06:42:12.282Z,10.60
2022-10-07T06:44:46.918Z,9.23
2022-10-07T06:47:18.481Z,9.40
2022-10-07T06:49:47.805Z,9.87
2022-10-07T06:52:15.686Z,10.57
2022-10-07T06:54:43.749Z,12.10
2022-10-07T06:57:43.704Z,9.00
2022-10-07T07:00:04.925Z,9.47
2022-10-07T07:02:34.616Z,10.83
2022-10-07T07:05:04.719Z,11.73
2022-10-07T07:07:32.940Z,11.00
2022-10-07T07:10:01.218Z,10.97
2022-10-07T07:12:33.288Z,9.83
2022-10-07T07:15:01.858Z,9.53
2022-10-07T07:17:29.745Z,8.63
2022-10-07T07:19:58.436Z,10.57
2022-10-07T07:22:26.425Z,9.43
2022-10-07T07:24:54.229Z,11.53
2022-10-07T07:27:22.484Z,16.70
2022-10-07T07:29:51.668Z,12.47
2022-10-07T07:32:19.783Z,12.90
2022-10-07T07:34:48.335Z,11.90
2022-10-07T07:37:21.359Z,15.10
2022-10-07T07:39:52.790Z,14.23
2022-10-07T07:42:21.753Z,14.50
2022-10-07T07:44:51.281Z,12.67
2022-10-07T07:47:21.359Z,13.37
2022-10-07T07:49:50.340Z,11.23
2022-10-07T07:52:25.540Z,10.23
2022-10-07T07:54:57.903Z,11.73
2022-10-07T07:57:26.054Z,11.10
2022-10-07T07:59:55.765Z,14.77
2022-10-07T08:02:25.232Z,13.63
2022-10-07T08:04:54.715Z,11.70
2022-10-07T08:07:24.078Z,10.67
2022-10-07T08:09:51.964Z,13.30
2022-10-07T08:12:21.071Z,19.90
2022-10-07T08:14:52.130Z,11.60
2022-10-07T08:17:22.146Z,17.10
2022-10-07T08:19:50.453Z,12.40
2022-10-07T08:22:19.264Z,15.03
2022-10-07T08:24:50.790Z,17.60
2022-10-07T08:27:21.438Z,12.83
2022-10-07T08:29:49.543Z,14.70
2022-10-07T08:32:17.506Z,15.10
2022-10-07T08:34:46.670Z,14.57
2022-10-07T08:37:14.445Z,14.60
2022-10-07T08:39:42.225Z,12.50
2022-10-07T08:42:15.886Z,12.53
2022-10-07T08:44:47.626Z,13.90
2022-10-07T08:47:22.126Z,14.37
2022-10-07T08:50:04.285Z,13.60
2022-10-07T08:52:41.808Z,13.47
2022-10-07T08:55:18.547Z,13.20
2022-10-07T08:58:09.967Z,10.47
2022-10-07T09:00:43.679Z,12.37
2022-10-07T09:03:25.621Z,11.33
2022-10-07T09:05:57.061Z,11.80
2022-10-07T09:08:32.496Z,23.63
2022-10-07T09:11:15.833Z,10.40
2022-10-07T09:13:48.897Z,13.20
2022-10-07T09:16:23.032Z,11.67
2022-10-07T09:18:54.183Z,10.03
2022-10-07T09:21:28.637Z,11.13
2022-10-07T09:23:58.433Z,10.87
2022-10-07T09:26:27.661Z,12.77
2022-10-07T09:28:55.560Z,9.40
2022-10-07T09:31:25.846Z,12.17
2022-10-07T09:33:54.285Z,13.50
2022-10-07T09:36:24.947Z,14.13
2022-10-07T09:38:53.756Z,11.70
2022-10-07T09:41:30.358Z,13.83
2022-10-07T09:44:03.710Z,12.70
2022-10-07T09:46:46.788Z,11.47
2022-10-07T09:49:32.513Z,12.00
2022-10-07T09:52:03.278Z,17.40
2022-10-07T09:54:32.999Z,20.80
2022-10-07T09:57:03.483Z,12.67
2022-10-07T09:59:32.703Z,12.27
2022-10-07T10:02:23.108Z,11.67
2022-10-07T10:04:53.076Z,10.50
2022-10-07T10:07:26.477Z,13.07
2022-10-07T10:09:55.886Z,10.20
2022-10-07T10:12:26.132Z,9.07
2022-10-07T10:14:55.703Z,9.47
2022-10-07T10:17:28.151Z,8.33
2022-10-07T10:19:56.793Z,9.10
2022-10-07T10:22:28.017Z,8.70
2022-10-07T10:25:14.221Z,12.00
2022-10-07T10:27:51.917Z,8.90
2022-10-07T10:30:22.597Z,7.70
2022-10-07T10:33:14.643Z,9.07
2022-10-07T10:35:51.361Z,7.70
2022-10-07T10:38:29.986Z,9.77
2022-10-07T10:41:11.320Z,7.30
2022-10-07T10:43:56.312Z,7.90
2022-10-07T10:46:33.687Z,12.93
2022-10-07T10:49:11.705Z,10.83
2022-10-07T10:51:55.720Z,19.53
2022-10-07T10:54:32.665Z,9.73
2022-10-07T10:57:06.649Z,8.93
2022-10-07T10:59:52.315Z,10.20
2022-10-07T11:02:38.748Z,8.40
2022-10-07T11:05:14.308Z,7.40
2022-10-07T11:07:47.673Z,7.53
2022-10-07T11:10:22.518Z,9.63
2022-10-07T11:12:56.543Z,6.60
2022-10-07T11:15:27.705Z,10.10
2022-10-07T11:18:01.717Z,32.37
2022-10-07T11:20:34.727Z,15.20
2022-10-07T11:23:07.536Z,11.10
2022-10-07T11:25:43.022Z,12.77
2022-10-07T11:28:18.309Z,8.43
2022-10-07T11:30:53.547Z,8.13
2022-10-07T11:33:28.653Z,7.43
2022-10-07T11:36:00.788Z,9.00
2022-10-07T11:38:33.346Z,6.23
2022-10-07T11:41:09.155Z,7.00
2022-10-07T11:43:44.629Z,7.63
2022-10-07T11:46:20.112Z,6.70
2022-10-07T11:48:54.812Z,6.43
2022-10-07T11:51:27.944Z,6.10
2022-10-07T11:53:59.498Z,7.03
2022-10-07T11:56:33.157Z,6.10
2022-10-07T11:59:03.507Z,8.50
2022-10-07T12:01:55.229Z,8.63
2022-10-07T12:04:26.209Z,6.80
2022-10-07T12:07:31.430Z,5.43
2022-10-07T12:10:23.261Z,6.53
2022-10-07T12:12:55.603Z,6.23
2022-10-07T12:15:35.845Z,6.70
2022-10-07T12:18:30.706Z,7.57
2022-10-07T12:21:07.869Z,6.73
2022-10-07T12:23:43.478Z,7.60
2022-10-07T12:26:52.071Z,6.97
2022-10-07T12:29:28.912Z,6.27
2022-10-07T12:31:57.069Z,6.33
2022-10-07T12:34:46.037Z,6.60
2022-10-07T12:37:50.258Z,8.53
2022-10-07T12:40:23.888Z,10.30
2022-10-07T12:42:57.394Z,10.43
2022-10-07T12:45:29.174Z,7.17
2022-10-07T12:48:00.238Z,10.23
2022-10-07T12:50:31.711Z,10.70
2022-10-07T12:53:03.802Z,12.20
2022-10-07T12:55:36.989Z,8.70
2022-10-07T12:58:44.125Z,6.70
2022-10-07T13:01:26.754Z,10.37
2022-10-07T13:04:25.423Z,10.23
2022-10-07T13:07:26.574Z,9.50
2022-10-07T13:10:19.072Z,9.00
2022-10-07T13:12:51.736Z,7.80
2022-10-07T13:15:30.369Z,8.63
2022-10-07T13:18:10.673Z,7.47
2022-10-07T13:20:48.607Z,8.23
2022-10-07T13:23:19.360Z,6.80
2022-10-07T13:25:53.515Z,6.07
2022-10-07T13:28:23.894Z,23.07
2022-10-07T13:30:53.576Z,17.67
2022-10-07T13:33:26.466Z,17.10
2022-10-07T13:36:07.821Z,7.80
2022-10-07T13:38:36.111Z,7.40
2022-10-07T13:41:09.756Z,6.70
2022-10-07T13:43:38.618Z,9.67
2022-10-07T13:46:10.391Z,8.10
2022-10-07T13:48:45.590Z,6.43
2022-10-07T13:51:24.083Z,6.50
2022-10-07T13:53:55.106Z,6.60
2022-10-07T13:56:26.869Z,7.40
2022-10-07T13:58:56.619Z,6.90
2022-10-07T14:01:28.146Z,8.63
2022-10-07T14:04:11.463Z,6.13
2022-10-07T14:06:48.289Z,5.60
2022-10-07T14:09:21.939Z,5.97
2022-10-07T14:11:55.095Z,6.73
2022-10-07T14:14:27.180Z,8.30
2022-10-07T14:16:59.256Z,6.67
2022-10-07T14:19:32.958Z,7.93
2022-10-07T14:22:03.649Z,7.50
2022-10-07T14:24:32.021Z,8.40
2022-10-07T14:27:00.439Z,7.37
2022-10-07T14:29:37.623Z,9.27
2022-10-07T14:32:31.933Z,7.60
2022-10-07T14:35:22.812Z,7.40
2022-10-07T14:37:50.904Z,6.07
2022-10-07T14:40:23.283Z,6.80
2022-10-07T14:42:54.172Z,9.10
2022-10-07T14:45:22.438Z,6.67
2022-10-07T14:47:50.697Z,7.07
2022-10-07T14:50:20.350Z,6.70
2022-10-07T14:52:51.889Z,8.30
2022-10-07T14:55:23.315Z,8.17
2022-10-07T14:57:51.277Z,7.20
2022-10-07T15:00:20.975Z,7.90
2022-10-07T15:02:50.200Z,9.50
2022-10-07T15:05:19.877Z,7.70
2022-10-07T15:07:47.741Z,7.93
2022-10-07T15:10:17.268Z,6.33
2022-10-07T15:12:45.548Z,10.80
2022-10-07T15:15:14.632Z,11.67
2022-10-07T15:17:43.822Z,15.30
2022-10-07T15:20:13.921Z,7.50
2022-10-07T15:22:43.724Z,11.50
2022-10-07T15:25:12.806Z,9.33
2022-10-07T15:27:40.643Z,8.60
2022-10-07T15:30:09.714Z,7.40
2022-10-07T15:32:37.564Z,8.73
2022-10-07T15:35:05.968Z,11.13
2022-10-07T15:37:34.119Z,7.40
2022-10-07T15:40:06.546Z,6.70
2022-10-07T15:42:34.393Z,11.40
2022-10-07T15:45:02.196Z,9.33
2022-10-07T15:47:30.347Z,11.37
2022-10-07T15:49:58.188Z,7.93
2022-10-07T15:52:26.060Z,6.73
2022-10-07T15:54:54.254Z,8.23
2022-10-07T15:57:24.349Z,7.40
2022-10-07T15:59:54.714Z,10.10
2022-10-07T16:02:22.662Z,6.63
2022-10-07T16:04:50.498Z,6.60
2022-10-07T16:07:18.331Z,8.23
2022-10-07T16:09:46.142Z,8.43
2022-10-07T16:12:14.205Z,8.17
2022-10-07T16:14:43.373Z,8.13
2022-10-07T16:17:11.253Z,6.90
2022-10-07T16:19:39.045Z,8.20
2022-10-07T16:22:06.860Z,14.37
2022-10-07T16:24:35.666Z,9.67
2022-10-07T16:27:03.670Z,6.93
2022-10-07T16:29:48.913Z,9.60
2022-10-07T16:32:18.073Z,7.63
2022-10-07T16:34:46.892Z,6.70
2022-10-07T16:37:15.685Z,6.63
2022-10-07T16:39:43.465Z,8.53
2022-10-07T16:42:11.321Z,8.50
2022-10-07T16:44:39.082Z,6.70
2022-10-07T16:47:06.900Z,8.93
2022-10-07T16:49:36.464Z,7.97
2022-10-07T16:52:04.466Z,10.13
2022-10-07T16:54:35.363Z,6.93
2022-10-07T16:57:03.259Z,9.60
2022-10-07T16:59:31.051Z,11.33
2022-10-07T17:02:02.268Z,8.83
2022-10-07T17:04:30.326Z,27.03
2022-10-07T17:06:59.447Z,14.83
2022-10-07T17:09:27.281Z,12.27
2022-10-07T17:11:55.245Z,15.20
2022-10-07T17:14:23.854Z,14.37
2022-10-07T17:16:54.627Z,14.43
2022-10-07T17:19:25.526Z,16.27
2022-10-07T17:21:54.613Z,19.37
2022-10-07T17:24:25.168Z,24.80
2022-10-07T17:26:53.510Z,20.63
2022-10-07T17:29:23.310Z,18.07
2022-10-07T17:31:51.597Z,27.13
2022-10-07T17:34:21.052Z,19.37
2022-10-07T17:36:49.195Z,20.23
2022-10-07T17:39:17.232Z,26.20
2022-10-07T17:41:46.470Z,24.20
2022-10-07T17:44:14.297Z,21.60
2022-10-07T17:46:42.762Z,20.53
2022-10-07T17:49:13.223Z,19.77
2022-10-07T17:51:42.582Z,23.77
2022-10-07T17:54:12.000Z,20.37
2022-10-07T17:56:40.226Z,18.77
2022-10-07T17:59:09.478Z,15.47
2022-10-07T18:01:37.697Z,18.00
2022-10-07T18:04:07.529Z,15.27
2022-10-07T18:06:37.253Z,18.60
2022-10-07T18:09:06.745Z,16.30
2022-10-07T18:11:53.085Z,16.07
2022-10-07T18:14:39.673Z,14.97
2022-10-07T18:17:08.995Z,14.37
2022-10-07T18:19:36.791Z,12.37
2022-10-07T18:22:04.610Z,11.87
2022-10-07T18:24:32.675Z,16.10
2022-10-07T18:27:02.136Z,15.10
2022-10-07T18:29:33.079Z,12.83
2022-10-07T18:32:01.867Z,13.07
2022-10-07T18:34:29.988Z,14.07
2022-10-07T18:36:57.809Z,14.83
2022-10-07T18:39:27.364Z,14.53
2022-10-07T18:41:55.506Z,15.97
2022-10-07T18:44:23.594Z,13.13
2022-10-07T18:46:53.226Z,13.20
2022-10-07T18:49:21.108Z,22.77
2022-10-07T18:51:50.617Z,18.97
2022-10-07T18:54:18.989Z,28.77
2022-10-07T18:56:48.234Z,18.87
2022-10-07T18:59:16.414Z,17.43
2022-10-07T19:01:49.838Z,21.40
2022-10-07T19:04:20.513Z,17.40
2022-10-07T19:06:48.893Z,19.47
2022-10-07T19:09:18.816Z,27.97
2022-10-07T19:11:47.366Z,31.87
2022-10-07T19:14:14.509Z,37.13
2022-10-07T19:16:44.233Z,26.33
2022-10-07T19:19:16.841Z,24.80
2022-10-07T19:21:47.498Z,20.97
2022-10-07T19:24:16.583Z,22.33
2022-10-07T19:26:46.214Z,27.67
2022-10-07T19:29:15.285Z,21.90
2022-10-07T19:31:45.621Z,19.57
2022-10-07T19:34:16.059Z,19.30
2022-10-07T19:36:47.266Z,24.87
2022-10-07T19:39:17.248Z,18.93
2022-10-07T19:41:45.620Z,19.97
2022-10-07T19:44:13.964Z,25.00
2022-10-07T19:46:42.137Z,31.00
2022-10-07T19:49:10.576Z,22.17
2022-10-07T19:51:38.871Z,26.60
2022-10-07T19:54:09.997Z,22.70
2022-10-07T19:56:39.131Z,28.70
2022-10-07T19:59:08.800Z,32.77
2022-10-07T20:01:39.351Z,31.53
2022-10-07T20:04:09.357Z,23.43
2022-10-07T20:06:38.282Z,27.43
2022-10-07T20:09:09.478Z,25.13
2022-10-07T20:11:37.588Z,30.27
2022-10-07T20:14:06.535Z,33.23
2022-10-07T20:16:35.091Z,24.87
2022-10-07T20:19:05.674Z,27.10
2022-10-07T20:21:35.751Z,23.97
2022-10-07T20:24:05.135Z,26.23
2022-10-07T20:26:36.975Z,33.07
2022-10-07T20:29:07.041Z,25.03
2022-10-07T20:31:37.095Z,25.90
2022-10-07T20:34:05.877Z,26.00
2022-10-07T20:36:36.231Z,26.27
2022-10-07T20:39:24.156Z,27.47
2022-10-07T20:42:12.647Z,28.43
2022-10-07T20:44:40.572Z,19.07
2022-10-07T20:47:10.221Z,28.60
2022-10-07T20:49:41.132Z,26.27
2022-10-07T20:52:11.278Z,26.33
2022-10-07T20:54:39.080Z,20.90
2022-10-07T20:57:08.482Z,23.43
2022-10-07T20:59:36.273Z,26.10
2022-10-07T21:02:09.145Z,32.63
2022-10-07T21:04:37.524Z,30.93
2022-10-07T21:07:05.476Z,21.97
2022-10-07T21:09:36.501Z,24.70
2022-10-07T21:12:07.351Z,21.90
2022-10-07T21:14:37.588Z,21.87
2022-10-07T21:17:06.225Z,24.80
2022-10-07T21:19:35.638Z,28.80
2022-10-07T21:22:03.929Z,29.43
2022-10-07T21:24:34.171Z,24.20
2022-10-07T21:27:02.851Z,22.03
2022-10-07T21:29:32.135Z,23.30
2022-10-07T21:32:02.030Z,23.07
2022-10-07T21:34:30.657Z,20.70
2022-10-07T21:36:59.092Z,22.00
2022-10-07T21:39:26.915Z,23.00
2022-10-07T21:41:55.325Z,20.07
2022-10-07T21:44:23.212Z,20.90
2022-10-07T21:46:51.393Z,16.87
2022-10-07T21:49:20.546Z,20.07
2022-10-07T21:51:48.334Z,17.60
2022-10-07T21:54:16.242Z,19.13
2022-10-07T21:56:46.081Z,20.73
2022-10-07T21:59:14.506Z,18.03
2022-10-07T22:01:43.378Z,14.90
2022-10-07T22:04:17.423Z,18.20
2022-10-07T22:07:19.275Z,19.73
2022-10-07T22:09:47.236Z,19.37
2022-10-07T22:12:15.515Z,17.90
2022-10-07T22:14:44.524Z,20.70
2022-10-07T22:17:14.097Z,23.50
2022-10-07T22:19:41.977Z,21.83
2022-10-07T22:22:12.516Z,19.27
2022-10-07T22:24:40.389Z,19.37
2022-10-07T22:27:08.189Z,17.80
2022-10-07T22:29:38.176Z,16.10
2022-10-07T22:32:06.024Z,17.90
2022-10-07T22:35:02.997Z,24.03
2022-10-07T22:37:32.317Z,23.00
2022-10-07T22:40:00.116Z,16.97
2022-10-07T22:42:27.906Z,23.00
2022-10-07T22:44:55.720Z,18.00
2022-10-07T22:47:23.485Z,17.80
2022-10-07T22:49:51.280Z,17.77
2022-10-07T22:52:19.065Z,21.43
2022-10-07T22:54:48.203Z,18.57
2022-10-07T22:57:16.558Z,19.70
2022-10-07T22:59:44.328Z,16.10
2022-10-07T23:02:12.188Z,16.27
2022-10-07T23:04:40.163Z,19.80
2022-10-07T23:07:07.984Z,17.80
2022-10-07T23:09:35.769Z,16.63
2022-10-07T23:12:05.789Z,21.80
2022-10-07T23:14:33.653Z,18.03
2022-10-07T23:17:01.539Z,21.13
2022-10-07T23:19:30.036Z,16.80
2022-10-07T23:21:57.831Z,23.83
2022-10-07T23:24:28.217Z,16.97
2022-10-07T23:26:56.050Z,19.23
2022-10-07T23:29:26.560Z,20.57
2022-10-07T23:31:54.347Z,20.90
2022-10-07T23:34:22.115Z,17.20
2022-10-07T23:36:49.866Z,20.57
2022-10-07T23:39:18.032Z,20.73
2022-10-07T23:41:45.820Z,17.47
2022-10-07T23:44:13.674Z,17.67
2022-10-07T23:46:42.924Z,16.17
2022-10-07T23:49:10.949Z,20.60
2022-10-07T23:51:38.753Z,18.87
2022-10-07T23:54:06.645Z,24.67
2022-10-07T23:56:34.623Z,21.33
2022-10-07T23:59:03.261Z,22.97
